sensor_id;sensor_type;location;lat;lon;timestamp;pressure;altitude;pressure_sealevel;temperature;humidity
60417;BME280;46263;44.726;10.396;2022-07-12T00:00:09;100618.66;;;23.11;77.58
60417;BME280;46263;44.726;10.396;2022-07-12T00:02:34;100628.41;;;23.17;76.56
60417;BME280;46263;44.726;10.396;2022-07-12T00:05:00;100624.56;;;22.91;77.24
60417;BME280;46263;44.726;10.396;2022-07-12T00:07:25;100622.69;;;22.73;78.00
60417;BME280;46263;44.726;10.396;2022-07-12T00:09:50;100625.31;;;22.64;79.01
60417;BME280;46263;44.726;10.396;2022-07-12T00:12:15;100614.44;;;22.45;80.51
60417;BME280;46263;44.726;10.396;2022-07-12T00:14:41;100620.13;;;22.63;79.28
60417;BME280;46263;44.726;10.396;2022-07-12T00:17:06;100613.38;;;22.87;78.61
60417;BME280;46263;44.726;10.396;2022-07-12T00:19:31;100609.44;;;22.80;79.27
60417;BME280;46263;44.726;10.396;2022-07-12T00:21:57;100620.03;;;22.68;79.73
60417;BME280;46263;44.726;10.396;2022-07-12T00:24:23;100613.88;;;22.76;79.74
60417;BME280;46263;44.726;10.396;2022-07-12T00:26:48;100616.94;;;22.88;79.84
60417;BME280;46263;44.726;10.396;2022-07-12T00:29:13;100615.75;;;22.80;79.71
60417;BME280;46263;44.726;10.396;2022-07-12T00:31:38;100607.06;;;22.73;79.75
60417;BME280;46263;44.726;10.396;2022-07-12T00:34:04;100610.88;;;22.58;80.69
60417;BME280;46263;44.726;10.396;2022-07-12T00:36:30;100614.13;;;22.47;80.92
60417;BME280;46263;44.726;10.396;2022-07-12T00:38:55;100616.19;;;22.69;80.77
60417;BME280;46263;44.726;10.396;2022-07-12T00:41:21;100616.66;;;22.57;80.94
60417;BME280;46263;44.726;10.396;2022-07-12T00:43:47;100616.75;;;22.84;79.87
60417;BME280;46263;44.726;10.396;2022-07-12T00:46:13;100621.22;;;22.48;82.11
60417;BME280;46263;44.726;10.396;2022-07-12T00:48:38;100619.34;;;22.30;82.63
60417;BME280;46263;44.726;10.396;2022-07-12T00:51:04;100631.31;;;22.66;82.07
60417;BME280;46263;44.726;10.396;2022-07-12T00:53:29;100627.31;;;22.58;81.36
60417;BME280;46263;44.726;10.396;2022-07-12T00:55:55;100638.38;;;22.53;82.31
60417;BME280;46263;44.726;10.396;2022-07-12T00:58:21;100634.41;;;22.46;82.41
60417;BME280;46263;44.726;10.396;2022-07-12T01:00:48;100636.78;;;22.34;83.30
60417;BME280;46263;44.726;10.396;2022-07-12T01:03:13;100628.38;;;22.30;83.28
60417;BME280;46263;44.726;10.396;2022-07-12T01:05:38;100625.97;;;22.42;83.08
60417;BME280;46263;44.726;10.396;2022-07-12T01:08:04;100621.75;;;22.17;84.32
60417;BME280;46263;44.726;10.396;2022-07-12T01:10:30;100628.66;;;22.29;84.53
60417;BME280;46263;44.726;10.396;2022-07-12T01:12:59;100630.34;;;22.11;86.12
60417;BME280;46263;44.726;10.396;2022-07-12T01:15:25;100631.97;;;21.93;88.00
60417;BME280;46263;44.726;10.396;2022-07-12T01:17:51;100630.09;;;21.88;87.22
60417;BME280;46263;44.726;10.396;2022-07-12T01:20:17;100636.63;;;21.93;87.61
60417;BME280;46263;44.726;10.396;2022-07-12T01:22:48;100635.81;;;22.11;86.60
60417;BME280;46263;44.726;10.396;2022-07-12T01:25:15;100642.16;;;22.06;86.71
60417;BME280;46263;44.726;10.396;2022-07-12T01:27:40;100640.84;;;22.04;87.48
60417;BME280;46263;44.726;10.396;2022-07-12T01:30:05;100636.16;;;22.23;85.90
60417;BME280;46263;44.726;10.396;2022-07-12T01:32:31;100644.91;;;22.06;88.25
60417;BME280;46263;44.726;10.396;2022-07-12T01:34:59;100644.16;;;22.01;88.73
60417;BME280;46263;44.726;10.396;2022-07-12T01:37:27;100641.56;;;21.90;89.20
60417;BME280;46263;44.726;10.396;2022-07-12T01:39:54;100636.97;;;21.86;89.41
60417;BME280;46263;44.726;10.396;2022-07-12T01:42:20;100637.94;;;21.76;90.66
60417;BME280;46263;44.726;10.396;2022-07-12T01:44:45;100638.03;;;21.90;89.13
60417;BME280;46263;44.726;10.396;2022-07-12T01:47:11;100626.19;;;21.76;90.11
60417;BME280;46263;44.726;10.396;2022-07-12T01:49:36;100631.41;;;21.72;91.25
60417;BME280;46263;44.726;10.396;2022-07-12T01:52:02;100632.59;;;21.66;91.91
60417;BME280;46263;44.726;10.396;2022-07-12T01:54:27;100637.13;;;21.76;90.99
60417;BME280;46263;44.726;10.396;2022-07-12T01:56:52;100639.28;;;21.60;91.88
60417;BME280;46263;44.726;10.396;2022-07-12T01:59:21;100635.94;;;21.63;92.29
60417;BME280;46263;44.726;10.396;2022-07-12T02:01:50;100629.44;;;21.78;90.86
60417;BME280;46263;44.726;10.396;2022-07-12T02:04:15;100636.09;;;21.90;90.71
60417;BME280;46263;44.726;10.396;2022-07-12T02:06:41;100641.28;;;21.92;90.46
60417;BME280;46263;44.726;10.396;2022-07-12T02:09:06;100639.78;;;21.81;91.31
60417;BME280;46263;44.726;10.396;2022-07-12T02:11:32;100648.19;;;21.66;92.72
60417;BME280;46263;44.726;10.396;2022-07-12T02:13:57;100642.72;;;21.66;92.48
60417;BME280;46263;44.726;10.396;2022-07-12T02:16:22;100642.88;;;21.55;93.54
60417;BME280;46263;44.726;10.396;2022-07-12T02:18:47;100651.56;;;21.39;94.82
60417;BME280;46263;44.726;10.396;2022-07-12T02:21:13;100644.50;;;21.75;92.26
60417;BME280;46263;44.726;10.396;2022-07-12T02:23:38;100649.00;;;21.66;92.67
60417;BME280;46263;44.726;10.396;2022-07-12T02:26:03;100646.38;;;21.61;93.64
60417;BME280;46263;44.726;10.396;2022-07-12T02:28:29;100648.59;;;21.59;93.48
60417;BME280;46263;44.726;10.396;2022-07-12T02:30:54;100657.94;;;21.34;95.70
60417;BME280;46263;44.726;10.396;2022-07-12T02:33:20;100658.75;;;21.53;94.73
60417;BME280;46263;44.726;10.396;2022-07-12T02:35:45;100663.97;;;21.31;95.52
60417;BME280;46263;44.726;10.396;2022-07-12T02:38:11;100675.06;;;21.40;95.11
60417;BME280;46263;44.726;10.396;2022-07-12T02:40:36;100673.66;;;21.18;96.92
60417;BME280;46263;44.726;10.396;2022-07-12T02:43:24;100665.13;;;21.25;96.16
60417;BME280;46263;44.726;10.396;2022-07-12T02:45:49;100670.41;;;21.40;95.77
60417;BME280;46263;44.726;10.396;2022-07-12T02:48:15;100670.88;;;21.23;96.79
60417;BME280;46263;44.726;10.396;2022-07-12T02:50:40;100671.41;;;21.26;96.91
60417;BME280;46263;44.726;10.396;2022-07-12T02:53:06;100665.69;;;20.98;98.43
60417;BME280;46263;44.726;10.396;2022-07-12T02:55:32;100662.00;;;20.84;99.68
60417;BME280;46263;44.726;10.396;2022-07-12T02:57:57;100663.72;;;21.04;98.16
60417;BME280;46263;44.726;10.396;2022-07-12T03:00:23;100661.59;;;20.96;99.41
60417;BME280;46263;44.726;10.396;2022-07-12T03:02:48;100666.03;;;21.15;98.19
60417;BME280;46263;44.726;10.396;2022-07-12T03:05:13;100670.03;;;20.99;99.02
60417;BME280;46263;44.726;10.396;2022-07-12T03:07:39;100678.50;;;21.27;97.53
60417;BME280;46263;44.726;10.396;2022-07-12T03:10:04;100671.50;;;21.39;96.13
60417;BME280;46263;44.726;10.396;2022-07-12T03:12:30;100669.34;;;21.12;98.26
60417;BME280;46263;44.726;10.396;2022-07-12T03:14:55;100670.72;;;21.10;99.12
60417;BME280;46263;44.726;10.396;2022-07-12T03:17:21;100668.72;;;21.20;97.58
60417;BME280;46263;44.726;10.396;2022-07-12T03:19:46;100676.16;;;21.39;96.15
60417;BME280;46263;44.726;10.396;2022-07-12T03:22:11;100678.72;;;21.06;98.36
60417;BME280;46263;44.726;10.396;2022-07-12T03:24:37;100679.88;;;21.00;98.99
60417;BME280;46263;44.726;10.396;2022-07-12T03:27:02;100684.66;;;20.84;100.00
60417;BME280;46263;44.726;10.396;2022-07-12T03:29:27;100678.75;;;21.01;99.88
60417;BME280;46263;44.726;10.396;2022-07-12T03:31:53;100688.44;;;20.88;100.00
60417;BME280;46263;44.726;10.396;2022-07-12T03:34:18;100690.66;;;20.86;100.00
60417;BME280;46263;44.726;10.396;2022-07-12T03:36:43;100685.66;;;20.94;100.00
60417;BME280;46263;44.726;10.396;2022-07-12T03:39:09;100683.75;;;20.94;100.00
60417;BME280;46263;44.726;10.396;2022-07-12T03:41:34;100683.00;;;21.12;99.48
60417;BME280;46263;44.726;10.396;2022-07-12T03:43:59;100681.91;;;21.37;96.99
60417;BME280;46263;44.726;10.396;2022-07-12T03:46:25;100687.72;;;21.36;97.99
60417;BME280;46263;44.726;10.396;2022-07-12T03:48:50;100696.59;;;21.22;97.56
60417;BME280;46263;44.726;10.396;2022-07-12T03:51:15;100697.72;;;21.16;98.55
60417;BME280;46263;44.726;10.396;2022-07-12T03:53:40;100705.25;;;21.30;96.66
60417;BME280;46263;44.726;10.396;2022-07-12T03:56:06;100708.38;;;20.89;99.29
60417;BME280;46263;44.726;10.396;2022-07-12T03:58:31;100704.72;;;20.75;100.00
60417;BME280;46263;44.726;10.396;2022-07-12T04:00:56;100702.69;;;20.85;100.00
60417;BME280;46263;44.726;10.396;2022-07-12T04:03:22;100698.88;;;21.10;98.27
60417;BME280;46263;44.726;10.396;2022-07-12T04:05:47;100706.91;;;21.02;98.76
60417;BME280;46263;44.726;10.396;2022-07-12T04:08:13;100703.72;;;20.89;99.92
60417;BME280;46263;44.726;10.396;2022-07-12T04:10:38;100707.97;;;20.77;100.00
60417;BME280;46263;44.726;10.396;2022-07-12T04:13:03;100710.06;;;20.85;100.00
60417;BME280;46263;44.726;10.396;2022-07-12T04:15:29;100708.97;;;21.10;98.82
60417;BME280;46263;44.726;10.396;2022-07-12T04:17:54;100707.75;;;21.26;98.39
60417;BME280;46263;44.726;10.396;2022-07-12T04:20:19;100712.66;;;21.29;99.24
60417;BME280;46263;44.726;10.396;2022-07-12T04:22:45;100703.34;;;21.30;98.74
60417;BME280;46263;44.726;10.396;2022-07-12T04:25:10;100701.72;;;21.29;99.10
60417;BME280;46263;44.726;10.396;2022-07-12T04:27:35;100708.53;;;21.32;98.10
60417;BME280;46263;44.726;10.396;2022-07-12T04:30:01;100711.69;;;21.39;97.68
60417;BME280;46263;44.726;10.396;2022-07-12T04:32:27;100716.72;;;21.32;99.16
60417;BME280;46263;44.726;10.396;2022-07-12T04:34:52;100733.03;;;21.08;100.00
60417;BME280;46263;44.726;10.396;2022-07-12T04:37:17;100730.56;;;21.11;100.00
60417;BME280;46263;44.726;10.396;2022-07-12T04:39:43;100730.16;;;21.28;98.46
60417;BME280;46263;44.726;10.396;2022-07-12T04:42:08;100735.84;;;21.03;100.00
60417;BME280;46263;44.726;10.396;2022-07-12T04:44:33;100734.69;;;21.38;99.45
60417;BME280;46263;44.726;10.396;2022-07-12T04:46:59;100731.19;;;21.56;98.80
60417;BME280;46263;44.726;10.396;2022-07-12T04:49:24;100729.22;;;21.62;98.56
60417;BME280;46263;44.726;10.396;2022-07-12T04:51:49;100725.72;;;21.56;97.48
60417;BME280;46263;44.726;10.396;2022-07-12T04:54:14;100728.53;;;21.51;97.17
60417;BME280;46263;44.726;10.396;2022-07-12T04:56:40;100729.38;;;21.46;97.01
60417;BME280;46263;44.726;10.396;2022-07-12T04:59:05;100725.84;;;21.22;98.69
60417;BME280;46263;44.726;10.396;2022-07-12T05:01:30;100723.63;;;21.24;97.86
60417;BME280;46263;44.726;10.396;2022-07-12T05:03:56;100724.78;;;21.42;97.42
60417;BME280;46263;44.726;10.396;2022-07-12T05:06:22;100733.38;;;21.06;100.00
60417;BME280;46263;44.726;10.396;2022-07-12T05:08:48;100739.00;;;21.15;100.00
60417;BME280;46263;44.726;10.396;2022-07-12T05:11:16;100745.50;;;21.24;100.00
60417;BME280;46263;44.726;10.396;2022-07-12T05:13:41;100751.44;;;21.31;100.00
60417;BME280;46263;44.726;10.396;2022-07-12T05:16:07;100747.09;;;21.54;100.00
60417;BME280;46263;44.726;10.396;2022-07-12T05:18:35;100749.03;;;21.72;96.61
60417;BME280;46263;44.726;10.396;2022-07-12T05:21:00;100751.66;;;21.82;97.48
60417;BME280;46263;44.726;10.396;2022-07-12T05:23:26;100750.84;;;21.82;97.07
60417;BME280;46263;44.726;10.396;2022-07-12T05:25:52;100751.72;;;21.77;97.82
60417;BME280;46263;44.726;10.396;2022-07-12T05:28:17;100745.31;;;21.87;98.25
60417;BME280;46263;44.726;10.396;2022-07-12T05:30:46;100747.75;;;21.88;96.83
60417;BME280;46263;44.726;10.396;2022-07-12T05:33:11;100746.47;;;21.81;97.02
60417;BME280;46263;44.726;10.396;2022-07-12T05:35:39;100747.81;;;21.83;95.96
60417;BME280;46263;44.726;10.396;2022-07-12T05:38:04;100763.88;;;21.66;97.02
60417;BME280;46263;44.726;10.396;2022-07-12T05:40:43;100760.69;;;21.83;96.41
60417;BME280;46263;44.726;10.396;2022-07-12T05:43:14;100758.22;;;21.81;97.39
60417;BME280;46263;44.726;10.396;2022-07-12T05:45:41;100759.03;;;22.06;96.91
60417;BME280;46263;44.726;10.396;2022-07-12T05:48:07;100754.00;;;22.13;95.03
60417;BME280;46263;44.726;10.396;2022-07-12T05:50:32;100755.94;;;22.31;94.40
60417;BME280;46263;44.726;10.396;2022-07-12T05:52:57;100756.69;;;22.37;95.32
60417;BME280;46263;44.726;10.396;2022-07-12T05:55:41;100763.69;;;22.62;93.92
60417;BME280;46263;44.726;10.396;2022-07-12T05:58:06;100756.88;;;22.59;94.12
60417;BME280;46263;44.726;10.396;2022-07-12T06:00:32;100758.63;;;22.87;92.09
60417;BME280;46263;44.726;10.396;2022-07-12T06:02:57;100765.63;;;22.80;92.89
60417;BME280;46263;44.726;10.396;2022-07-12T06:05:23;100772.19;;;22.60;94.04
60417;BME280;46263;44.726;10.396;2022-07-12T06:07:49;100773.19;;;23.02;91.95
60417;BME280;46263;44.726;10.396;2022-07-12T06:10:14;100773.94;;;23.21;90.39
60417;BME280;46263;44.726;10.396;2022-07-12T06:12:39;100772.03;;;22.89;94.33
60417;BME280;46263;44.726;10.396;2022-07-12T06:15:05;100777.94;;;22.96;92.75
60417;BME280;46263;44.726;10.396;2022-07-12T06:17:32;100772.63;;;22.86;93.34
60417;BME280;46263;44.726;10.396;2022-07-12T06:19:57;100772.91;;;22.84;93.18
60417;BME280;46263;44.726;10.396;2022-07-12T06:22:23;100778.50;;;22.79;94.28
60417;BME280;46263;44.726;10.396;2022-07-12T06:24:48;100771.88;;;22.99;92.83
60417;BME280;46263;44.726;10.396;2022-07-12T06:27:13;100776.47;;;22.85;92.96
60417;BME280;46263;44.726;10.396;2022-07-12T06:35:57;100783.00;;;23.49;88.97
60417;BME280;46263;44.726;10.396;2022-07-12T06:41:16;100781.16;;;23.31;90.00
60417;BME280;46263;44.726;10.396;2022-07-12T06:44:10;100786.31;;;23.65;88.98
60417;BME280;46263;44.726;10.396;2022-07-12T06:46:49;100796.72;;;23.49;88.42
60417;BME280;46263;44.726;10.396;2022-07-12T06:49:14;100794.41;;;23.70;88.29
60417;BME280;46263;44.726;10.396;2022-07-12T06:51:40;100799.88;;;23.97;86.24
60417;BME280;46263;44.726;10.396;2022-07-12T06:54:05;100799.06;;;24.24;84.75
60417;BME280;46263;44.726;10.396;2022-07-12T06:56:31;100798.75;;;24.26;84.88
60417;BME280;46263;44.726;10.396;2022-07-12T06:58:56;100793.13;;;24.44;84.97
60417;BME280;46263;44.726;10.396;2022-07-12T07:01:24;100792.00;;;24.45;83.89
60417;BME280;46263;44.726;10.396;2022-07-12T07:03:56;100793.75;;;24.41;84.04
60417;BME280;46263;44.726;10.396;2022-07-12T07:06:22;100787.38;;;24.54;84.44
60417;BME280;46263;44.726;10.396;2022-07-12T07:08:49;100789.50;;;24.21;84.69
60417;BME280;46263;44.726;10.396;2022-07-12T07:11:14;100797.72;;;24.35;83.17
60417;BME280;46263;44.726;10.396;2022-07-12T07:13:40;100801.25;;;24.49;83.42
60417;BME280;46263;44.726;10.396;2022-07-12T07:16:05;100804.75;;;24.28;83.49
60417;BME280;46263;44.726;10.396;2022-07-12T07:18:31;100808.63;;;24.27;83.86
60417;BME280;46263;44.726;10.396;2022-07-12T07:20:56;100807.91;;;24.35;83.90
60417;BME280;46263;44.726;10.396;2022-07-12T07:23:22;100814.91;;;24.41;82.86
60417;BME280;46263;44.726;10.396;2022-07-12T07:25:47;100822.84;;;24.29;82.06
60417;BME280;46263;44.726;10.396;2022-07-12T07:28:12;100818.91;;;24.57;82.81
60417;BME280;46263;44.726;10.396;2022-07-12T07:30:37;100818.16;;;24.79;79.75
60417;BME280;46263;44.726;10.396;2022-07-12T07:33:24;100815.13;;;24.89;79.30
60417;BME280;46263;44.726;10.396;2022-07-12T07:35:49;100812.88;;;24.69;79.25
60417;BME280;46263;44.726;10.396;2022-07-12T07:38:16;100811.56;;;24.66;80.14
60417;BME280;46263;44.726;10.396;2022-07-12T07:40:41;100814.00;;;24.68;79.82
60417;BME280;46263;44.726;10.396;2022-07-12T07:43:06;100817.44;;;24.73;80.61
60417;BME280;46263;44.726;10.396;2022-07-12T07:45:32;100824.38;;;24.71;81.09
60417;BME280;46263;44.726;10.396;2022-07-12T07:47:57;100819.06;;;24.74;80.18
60417;BME280;46263;44.726;10.396;2022-07-12T07:50:22;100822.22;;;24.81;81.26
60417;BME280;46263;44.726;10.396;2022-07-12T07:52:47;100817.06;;;24.66;81.30
60417;BME280;46263;44.726;10.396;2022-07-12T07:55:15;100813.19;;;24.67;81.32
60417;BME280;46263;44.726;10.396;2022-07-12T07:57:40;100808.00;;;24.88;80.95
60417;BME280;46263;44.726;10.396;2022-07-12T08:00:06;100817.03;;;25.02;80.49
60417;BME280;46263;44.726;10.396;2022-07-12T08:02:31;100813.88;;;25.17;80.33
60417;BME280;46263;44.726;10.396;2022-07-12T08:04:56;100820.19;;;25.18;79.29
60417;BME280;46263;44.726;10.396;2022-07-12T08:07:22;100829.06;;;25.15;77.85
60417;BME280;46263;44.726;10.396;2022-07-12T08:09:47;100836.84;;;25.44;77.11
60417;BME280;46263;44.726;10.396;2022-07-12T08:12:12;100834.41;;;25.42;75.86
60417;BME280;46263;44.726;10.396;2022-07-12T08:14:38;100828.25;;;25.37;76.94
60417;BME280;46263;44.726;10.396;2022-07-12T08:17:03;100828.09;;;25.42;76.24
60417;BME280;46263;44.726;10.396;2022-07-12T08:19:28;100832.63;;;25.38;76.61
60417;BME280;46263;44.726;10.396;2022-07-12T08:21:54;100827.88;;;25.30;76.49
60417;BME280;46263;44.726;10.396;2022-07-12T08:24:19;100824.88;;;25.17;77.28
60417;BME280;46263;44.726;10.396;2022-07-12T08:26:44;100831.25;;;25.27;75.75
60417;BME280;46263;44.726;10.396;2022-07-12T08:29:09;100828.25;;;25.37;75.95
60417;BME280;46263;44.726;10.396;2022-07-12T08:31:35;100828.16;;;25.50;74.53
60417;BME280;46263;44.726;10.396;2022-07-12T08:34:01;100829.94;;;25.86;72.94
60417;BME280;46263;44.726;10.396;2022-07-12T08:36:26;100826.91;;;25.96;73.16
60417;BME280;46263;44.726;10.396;2022-07-12T08:38:51;100816.09;;;26.17;70.85
60417;BME280;46263;44.726;10.396;2022-07-12T08:41:17;100813.19;;;26.13;70.07
60417;BME280;46263;44.726;10.396;2022-07-12T08:43:42;100812.78;;;26.54;69.62
60417;BME280;46263;44.726;10.396;2022-07-12T08:46:09;100809.59;;;25.96;68.54
60417;BME280;46263;44.726;10.396;2022-07-12T08:48:34;100804.56;;;26.06;70.30
60417;BME280;46263;44.726;10.396;2022-07-12T08:51:04;100802.03;;;26.27;69.98
60417;BME280;46263;44.726;10.396;2022-07-12T08:53:31;100812.59;;;26.60;70.64
60417;BME280;46263;44.726;10.396;2022-07-12T08:55:56;100802.56;;;26.46;68.37
60417;BME280;46263;44.726;10.396;2022-07-12T08:58:21;100810.66;;;26.69;67.66
60417;BME280;46263;44.726;10.396;2022-07-12T09:00:47;100807.88;;;26.95;67.12
60417;BME280;46263;44.726;10.396;2022-07-12T09:03:12;100814.97;;;27.39;66.46
60417;BME280;46263;44.726;10.396;2022-07-12T09:05:39;100808.13;;;27.36;66.24
60417;BME280;46263;44.726;10.396;2022-07-12T09:08:11;100814.91;;;27.47;64.54
60417;BME280;46263;44.726;10.396;2022-07-12T09:10:53;100817.16;;;27.54;65.10
60417;BME280;46263;44.726;10.396;2022-07-12T09:13:19;100811.63;;;27.54;64.43
60417;BME280;46263;44.726;10.396;2022-07-12T09:15:45;100825.50;;;27.83;62.76
60417;BME280;46263;44.726;10.396;2022-07-12T09:18:13;100824.03;;;27.86;62.35
60417;BME280;46263;44.726;10.396;2022-07-12T09:20:41;100825.66;;;27.87;62.88
60417;BME280;46263;44.726;10.396;2022-07-12T09:23:08;100828.56;;;27.44;63.29
60417;BME280;46263;44.726;10.396;2022-07-12T09:25:33;100821.63;;;27.20;61.99
60417;BME280;46263;44.726;10.396;2022-07-12T09:28:00;100821.88;;;27.62;62.87
60417;BME280;46263;44.726;10.396;2022-07-12T09:30:28;100822.25;;;27.81;62.00
60417;BME280;46263;44.726;10.396;2022-07-12T09:35:37;100821.63;;;27.76;60.96
60417;BME280;46263;44.726;10.396;2022-07-12T09:38:21;100822.94;;;28.08;61.71
60417;BME280;46263;44.726;10.396;2022-07-12T09:40:46;100822.81;;;28.54;61.10
60417;BME280;46263;44.726;10.396;2022-07-12T09:43:12;100816.19;;;28.47;60.20
60417;BME280;46263;44.726;10.396;2022-07-12T09:45:39;100822.47;;;28.77;59.18
60417;BME280;46263;44.726;10.396;2022-07-12T09:48:04;100820.84;;;28.76;59.75
60417;BME280;46263;44.726;10.396;2022-07-12T09:50:30;100820.84;;;28.55;58.01
60417;BME280;46263;44.726;10.396;2022-07-12T09:52:57;100824.66;;;29.04;58.90
60417;BME280;46263;44.726;10.396;2022-07-12T09:55:24;100829.19;;;29.09;57.80
60417;BME280;46263;44.726;10.396;2022-07-12T09:57:49;100828.53;;;28.91;60.67
60417;BME280;46263;44.726;10.396;2022-07-12T10:00:19;100828.31;;;28.96;58.36
60417;BME280;46263;44.726;10.396;2022-07-12T10:02:45;100819.75;;;28.68;59.65
60417;BME280;46263;44.726;10.396;2022-07-12T10:05:11;100818.75;;;28.94;59.19
60417;BME280;46263;44.726;10.396;2022-07-12T10:07:37;100814.53;;;28.54;57.68
60417;BME280;46263;44.726;10.396;2022-07-12T10:10:03;100809.78;;;27.75;60.75
60417;BME280;46263;44.726;10.396;2022-07-12T10:12:29;100809.06;;;28.25;62.79
60417;BME280;46263;44.726;10.396;2022-07-12T10:14:59;100813.31;;;27.84;61.31
60417;BME280;46263;44.726;10.396;2022-07-12T10:17:25;100804.88;;;28.10;62.08
60417;BME280;46263;44.726;10.396;2022-07-12T10:20:13;100802.44;;;28.09;61.77
60417;BME280;46263;44.726;10.396;2022-07-12T10:22:36;100806.00;;;28.60;60.09
60417;BME280;46263;44.726;10.396;2022-07-12T10:25:01;100804.75;;;29.11;56.60
60417;BME280;46263;44.726;10.396;2022-07-12T10:27:27;100793.06;;;28.31;56.20
60417;BME280;46263;44.726;10.396;2022-07-12T10:29:53;100801.22;;;29.35;57.30
60417;BME280;46263;44.726;10.396;2022-07-12T10:32:36;100799.22;;;29.11;53.31
60417;BME280;46263;44.726;10.396;2022-07-12T10:35:06;100800.91;;;29.48;55.46
60417;BME280;46263;44.726;10.396;2022-07-12T10:37:33;100795.53;;;30.01;54.86
60417;BME280;46263;44.726;10.396;2022-07-12T10:40:11;100793.59;;;28.66;55.15
60417;BME280;46263;44.726;10.396;2022-07-12T10:42:37;100804.72;;;29.80;58.21
60417;BME280;46263;44.726;10.396;2022-07-12T10:45:10;100792.97;;;29.83;54.45
60417;BME280;46263;44.726;10.396;2022-07-12T10:47:55;100789.28;;;29.67;53.15
60417;BME280;46263;44.726;10.396;2022-07-12T10:58:39;100779.84;;;30.57;50.37
60417;BME280;46263;44.726;10.396;2022-07-12T11:01:06;100780.03;;;30.52;51.40
60417;BME280;46263;44.726;10.396;2022-07-12T11:03:32;100782.22;;;30.18;52.91
60417;BME280;46263;44.726;10.396;2022-07-12T11:06:05;100779.22;;;29.87;51.34
60417;BME280;46263;44.726;10.396;2022-07-12T11:08:31;100787.06;;;29.48;52.84
60417;BME280;46263;44.726;10.396;2022-07-12T11:10:57;100784.63;;;29.47;52.19
60417;BME280;46263;44.726;10.396;2022-07-12T11:13:23;100788.75;;;29.29;52.48
60417;BME280;46263;44.726;10.396;2022-07-12T11:16:01;100778.41;;;29.50;50.88
60417;BME280;46263;44.726;10.396;2022-07-12T11:18:27;100783.97;;;29.86;51.49
60417;BME280;46263;44.726;10.396;2022-07-12T11:20:54;100781.44;;;29.69;51.07
60417;BME280;46263;44.726;10.396;2022-07-12T11:23:20;100770.25;;;30.02;49.63
60417;BME280;46263;44.726;10.396;2022-07-12T11:25:46;100775.16;;;30.21;51.63
60417;BME280;46263;44.726;10.396;2022-07-12T11:28:11;100765.72;;;29.85;50.56
60417;BME280;46263;44.726;10.396;2022-07-12T11:30:37;100768.94;;;29.87;52.18
60417;BME280;46263;44.726;10.396;2022-07-12T11:33:02;100764.22;;;29.39;51.00
60417;BME280;46263;44.726;10.396;2022-07-12T11:35:27;100768.69;;;30.29;47.33
60417;BME280;46263;44.726;10.396;2022-07-12T11:37:54;100755.91;;;30.52;46.76
60417;BME280;46263;44.726;10.396;2022-07-12T11:40:24;100757.16;;;30.83;47.63
60417;BME280;46263;44.726;10.396;2022-07-12T11:42:57;100751.03;;;31.52;46.30
60417;BME280;46263;44.726;10.396;2022-07-12T11:45:24;100756.81;;;31.44;45.00
60417;BME280;46263;44.726;10.396;2022-07-12T11:47:49;100759.50;;;30.97;46.84
60417;BME280;46263;44.726;10.396;2022-07-12T11:50:16;100762.06;;;31.49;44.62
60417;BME280;46263;44.726;10.396;2022-07-12T11:52:42;100759.41;;;31.37;42.69
60417;BME280;46263;44.726;10.396;2022-07-12T11:55:08;100765.63;;;31.97;42.89
60417;BME280;46263;44.726;10.396;2022-07-12T11:57:33;100761.28;;;31.33;44.76
60417;BME280;46263;44.726;10.396;2022-07-12T12:00:12;100752.13;;;31.32;46.16
60417;BME280;46263;44.726;10.396;2022-07-12T12:02:37;100761.09;;;32.08;44.67
60417;BME280;46263;44.726;10.396;2022-07-12T12:05:02;100756.94;;;31.82;45.61
60417;BME280;46263;44.726;10.396;2022-07-12T12:07:29;100753.97;;;30.41;43.48
60417;BME280;46263;44.726;10.396;2022-07-12T12:10:02;100740.75;;;31.21;43.07
60417;BME280;46263;44.726;10.396;2022-07-12T12:12:34;100745.16;;;30.51;43.33
60417;BME280;46263;44.726;10.396;2022-07-12T12:15:04;100751.25;;;31.75;40.86
60417;BME280;46263;44.726;10.396;2022-07-12T12:17:30;100747.16;;;31.88;41.96
60417;BME280;46263;44.726;10.396;2022-07-12T12:19:55;100742.91;;;31.12;43.43
60417;BME280;46263;44.726;10.396;2022-07-12T12:22:27;100741.44;;;31.81;42.56
60417;BME280;46263;44.726;10.396;2022-07-12T12:24:59;100742.16;;;31.78;40.89
60417;BME280;46263;44.726;10.396;2022-07-12T12:27:25;100731.09;;;32.33;40.11
60417;BME280;46263;44.726;10.396;2022-07-12T12:29:50;100733.88;;;32.94;40.48
60417;BME280;46263;44.726;10.396;2022-07-12T12:32:17;100734.25;;;32.15;42.57
60417;BME280;46263;44.726;10.396;2022-07-12T12:35:04;100723.69;;;31.86;43.17
60417;BME280;46263;44.726;10.396;2022-07-12T12:37:28;100722.16;;;32.43;40.65
60417;BME280;46263;44.726;10.396;2022-07-12T12:39:53;100731.47;;;31.96;42.72
60417;BME280;46263;44.726;10.396;2022-07-12T12:42:24;100726.53;;;31.39;43.05
60417;BME280;46263;44.726;10.396;2022-07-12T12:44:53;100717.94;;;30.69;43.34
60417;BME280;46263;44.726;10.396;2022-07-12T12:47:18;100715.72;;;31.18;44.43
60417;BME280;46263;44.726;10.396;2022-07-12T12:49:56;100723.66;;;31.19;42.69
60417;BME280;46263;44.726;10.396;2022-07-12T12:52:22;100716.03;;;32.18;40.67
60417;BME280;46263;44.726;10.396;2022-07-12T12:54:48;100714.75;;;32.50;41.14
60417;BME280;46263;44.726;10.396;2022-07-12T13:00:21;100715.97;;;33.14;41.22